Time;durP1;ratioP1;P1;durP2;ratioP2;P2;SDS_P1;SDS_P2;PMS_P1;PMS_P2;Temp;Humidity;BMP_temperature;BMP_pressure;BME280_temperature;BME280_humidity;BME280_pressure;Samples;Min_cycle;Max_cycle;Signal;HPM_P1;HPM_P2
2024/03/15 00:01:00;;;;;;;7.20;4.18;;;;;;;14.58;100.00;100719.47;5249106;28;20008;-77
2024/03/15 00:03:30;;;;;;;9.70;4.40;;;;;;;14.50;100.00;100704.25;5254055;28;20514;-76
2024/03/15 00:06:01;;;;;;;9.20;4.28;;;;;;;14.48;100.00;100711.72;5258217;28;20086;-74
2024/03/15 00:08:32;;;;;;;10.05;4.47;;;;;;;14.45;100.00;100705.84;5254245;28;20147;-77
2024/03/15 00:11:03;;;;;;;8.88;4.13;;;;;;;14.42;100.00;100712.47;5252328;28;20550;-74
2024/03/15 00:13:33;;;;;;;8.02;4.18;;;;;;;14.39;100.00;100714.72;5253017;28;20027;-74
2024/03/15 00:16:04;;;;;;;11.43;4.30;;;;;;;14.41;100.00;100708.13;5252439;28;20474;-76
2024/03/15 00:18:36;;;;;;;10.07;3.58;;;;;;;14.40;100.00;100713.69;5257057;28;20032;-75
2024/03/15 00:21:06;;;;;;;10.10;3.90;;;;;;;14.37;100.00;100709.53;5248358;28;20389;-75
2024/03/15 00:23:37;;;;;;;12.23;4.15;;;;;;;14.36;100.00;100717.81;5253064;28;20032;-74
2024/03/15 00:26:08;;;;;;;10.23;4.22;;;;;;;14.36;100.00;100710.56;5253635;28;20062;-74
2024/03/15 00:28:39;;;;;;;7.82;3.90;;;;;;;14.41;100.00;100704.56;5252108;28;20032;-74
2024/03/15 00:31:10;;;;;;;8.68;4.07;;;;;;;14.39;100.00;100706.63;5254446;28;20024;-74
2024/03/15 00:33:40;;;;;;;9.75;4.30;;;;;;;14.36;100.00;100713.25;5252113;28;20030;-75
2024/03/15 00:36:13;;;;;;;8.75;3.78;;;;;;;14.32;100.00;100717.38;5255747;28;20036;-74
2024/03/15 00:38:44;;;;;;;9.00;4.07;;;;;;;14.33;100.00;100712.81;5251841;28;20047;-74
2024/03/15 00:41:15;;;;;;;8.32;3.97;;;;;;;14.31;100.00;100704.91;5257620;28;20028;-76
2024/03/15 00:43:45;;;;;;;10.05;4.25;;;;;;;14.28;100.00;100710.69;5251148;28;20020;-75
2024/03/15 00:46:17;;;;;;;9.85;4.78;;;;;;;14.28;100.00;100705.28;5256740;28;20061;-74
2024/03/15 00:48:49;;;;;;;9.20;4.22;;;;;;;14.21;100.00;100702.53;5252313;28;20059;-74
2024/03/15 00:51:20;;;;;;;11.90;4.38;;;;;;;14.18;100.00;100699.38;5256952;28;20020;-77
2024/03/15 00:53:50;;;;;;;11.15;3.92;;;;;;;14.17;100.00;100700.41;5255429;28;20153;-75
2024/03/15 00:56:21;;;;;;;9.98;3.75;;;;;;;14.18;100.00;100697.50;5255921;28;20115;-75
2024/03/15 00:58:52;;;;;;;7.85;3.53;;;;;;;14.19;100.00;100698.34;5261647;28;20024;-75
2024/03/15 01:01:22;;;;;;;7.63;3.83;;;;;;;14.18;100.00;100691.28;5255366;28;20111;-74
2024/03/15 01:03:53;;;;;;;8.77;4.05;;;;;;;14.28;100.00;100694.50;5256059;28;20366;-76
2024/03/15 01:06:23;;;;;;;5.00;3.17;;;;;;;14.34;100.00;100698.28;5259749;28;20027;-77
2024/03/15 01:08:54;;;;;;;6.82;3.83;;;;;;;14.41;100.00;100704.56;5249035;28;20099;-74
2024/03/15 01:11:24;;;;;;;8.88;3.72;;;;;;;14.46;100.00;100694.88;5251621;28;20031;-74
2024/03/15 01:13:57;;;;;;;7.65;3.10;;;;;;;14.56;100.00;100701.78;5251023;28;20401;-74
2024/03/15 01:16:27;;;;;;;7.13;3.45;;;;;;;14.63;100.00;100698.13;5260806;28;20024;-75
2024/03/15 01:19:00;;;;;;;10.40;4.00;;;;;;;14.65;100.00;100701.47;5254818;28;20022;-75
2024/03/15 01:21:30;;;;;;;8.70;3.60;;;;;;;14.68;100.00;100692.97;5257515;28;20115;-74
2024/03/15 01:24:01;;;;;;;12.05;3.67;;;;;;;14.76;100.00;100698.25;5254763;28;20069;-74
2024/03/15 01:26:31;;;;;;;8.50;3.88;;;;;;;14.82;100.00;100693.06;5250172;28;20027;-75
2024/03/15 01:29:02;;;;;;;9.23;3.58;;;;;;;14.80;100.00;100693.25;5258151;28;20024;-75
2024/03/15 01:31:32;;;;;;;6.97;3.47;;;;;;;14.86;100.00;100699.72;5254302;28;20047;-74
2024/03/15 01:34:03;;;;;;;8.57;3.58;;;;;;;14.82;100.00;100691.22;5255505;28;20042;-74
2024/03/15 01:36:33;;;;;;;8.95;4.18;;;;;;;14.92;100.00;100698.97;5257471;28;20020;-77
2024/03/15 01:39:05;;;;;;;9.95;3.60;;;;;;;14.94;100.00;100697.72;5259091;28;20016;-75
2024/03/15 01:41:36;;;;;;;11.35;3.42;;;;;;;14.98;100.00;100698.16;5253675;28;20032;-74
2024/03/15 01:44:06;;;;;;;16.77;4.03;;;;;;;14.93;100.00;100695.22;5258062;28;20450;-74
2024/03/15 01:46:37;;;;;;;9.23;3.42;;;;;;;15.01;100.00;100690.50;5256004;28;20036;-75
2024/03/15 01:49:08;;;;;;;10.07;3.40;;;;;;;15.04;100.00;100681.16;5258575;28;20036;-76
2024/03/15 01:51:39;;;;;;;8.90;3.42;;;;;;;15.07;100.00;100683.47;5247663;28;20496;-74
2024/03/15 01:54:10;;;;;;;10.13;3.88;;;;;;;15.09;100.00;100683.25;5254290;28;20025;-77
2024/03/15 01:56:41;;;;;;;7.28;3.20;;;;;;;15.16;100.00;100682.28;5252727;28;20016;-74
2024/03/15 01:59:11;;;;;;;7.80;3.45;;;;;;;15.19;100.00;100681.03;5257413;28;20031;-74
2024/03/15 02:01:42;;;;;;;15.35;4.13;;;;;;;15.31;100.00;100676.69;5252098;28;20430;-76
2024/03/15 02:04:12;;;;;;;11.10;3.78;;;;;;;15.34;100.00;100672.78;5251403;28;20032;-74
2024/03/15 02:06:43;;;;;;;7.75;3.50;;;;;;;15.37;100.00;100667.81;5255404;28;20020;-75
2024/03/15 02:09:14;;;;;;;5.90;3.03;;;;;;;15.41;100.00;100670.91;5256177;28;20024;-74
2024/03/15 02:11:44;;;;;;;7.60;3.40;;;;;;;15.41;100.00;100668.22;5257596;28;20027;-77
2024/03/15 02:14:15;;;;;;;8.63;3.55;;;;;;;15.49;100.00;100668.03;5251218;28;20529;-74
2024/03/15 02:16:46;;;;;;;9.30;3.20;;;;;;;15.50;100.00;100673.25;5250198;28;20108;-75
2024/03/15 02:19:16;;;;;;;9.43;3.05;;;;;;;15.48;100.00;100679.91;5257451;28;20031;-77
2024/03/15 02:21:47;;;;;;;8.27;3.92;;;;;;;15.53;100.00;100672.84;5252210;28;20032;-76
2024/03/15 02:24:18;;;;;;;9.32;3.80;;;;;;;15.51;100.00;100671.38;5255924;28;20394;-74
2024/03/15 02:26:48;;;;;;;11.43;3.38;;;;;;;15.50;100.00;100677.81;5255160;28;20521;-77
2024/03/15 02:29:35;;;;;;;8.18;3.60;;;;;;;15.49;100.00;100684.28;5245584;28;20071;-74
2024/03/15 02:32:10;;;;;;;7.63;3.80;;;;;;;15.47;100.00;100681.78;5253500;28;20028;-74
2024/03/15 02:34:41;;;;;;;8.57;3.63;;;;;;;15.46;100.00;100674.72;5252979;28;20020;-76
2024/03/15 02:37:11;;;;;;;10.27;3.22;;;;;;;15.47;100.00;100681.78;5255233;28;20027;-74
2024/03/15 02:39:42;;;;;;;7.90;3.67;;;;;;;15.48;100.00;100691.56;5254481;28;20530;-77
2024/03/15 02:42:13;;;;;;;8.57;3.40;;;;;;;15.43;100.00;100676.97;5255726;28;20046;-77
2024/03/15 02:44:43;;;;;;;10.80;4.13;;;;;;;15.38;100.00;100682.97;5251758;28;20467;-76
2024/03/15 02:47:14;;;;;;;9.50;4.00;;;;;;;15.39;100.00;100687.34;5253050;28;20616;-75
2024/03/15 02:49:45;;;;;;;10.15;3.92;;;;;;;15.42;100.00;100691.53;5249116;28;20104;-77
2024/03/15 02:52:15;;;;;;;9.38;3.53;;;;;;;15.40;100.00;100688.19;5254961;28;20519;-75
2024/03/15 02:54:48;;;;;;;6.65;3.22;;;;;;;15.38;100.00;100688.38;5248465;28;20099;-74
2024/03/15 02:57:19;;;;;;;5.97;3.67;;;;;;;15.34;100.00;100689.00;5257182;28;20392;-75
2024/03/15 02:59:49;;;;;;;8.80;3.63;;;;;;;15.26;100.00;100682.72;5253152;28;20026;-75
2024/03/15 03:02:23;;;;;;;9.65;3.67;;;;;;;15.17;100.00;100691.22;5253778;28;20027;-74
2024/03/15 03:04:53;;;;;;;8.95;3.92;;;;;;;15.20;100.00;100686.22;5248592;28;20456;-75
2024/03/15 03:07:24;;;;;;;8.68;4.10;;;;;;;15.11;100.00;100679.34;5246656;28;20028;-74
2024/03/15 03:09:55;;;;;;;12.65;4.28;;;;;;;15.10;100.00;100687.63;5255800;28;20027;-76
2024/03/15 03:12:26;;;;;;;11.38;3.92;;;;;;;15.19;100.00;100686.44;5255288;28;20047;-76
2024/03/15 03:14:56;;;;;;;8.55;3.78;;;;;;;15.19;100.00;100686.44;5260298;28;20012;-75
2024/03/15 03:17:27;;;;;;;8.57;3.58;;;;;;;15.19;100.00;100686.44;5258201;28;20134;-74
2024/03/15 03:19:59;;;;;;;6.60;3.60;;;;;;;15.18;100.00;100692.88;5257115;28;20020;-77
2024/03/15 03:22:30;;;;;;;10.88;4.40;;;;;;;15.14;100.00;100691.59;5256527;28;20038;-74
2024/03/15 03:25:01;;;;;;;6.60;3.00;;;;;;;15.19;100.00;100689.13;5261854;28;20637;-74
2024/03/15 03:27:31;;;;;;;7.53;3.78;;;;;;;15.18;100.00;100688.28;5257497;28;20028;-75
2024/03/15 03:30:03;;;;;;;8.90;3.75;;;;;;;15.12;100.00;100688.28;5253835;28;20028;-74
2024/03/15 03:32:35;;;;;;;9.73;3.88;;;;;;;15.11;100.00;100692.84;5260917;28;20514;-77
2024/03/15 03:35:06;;;;;;;9.30;3.95;;;;;;;15.09;100.00;100696.75;5255726;28;20020;-77
2024/03/15 03:37:37;;;;;;;6.78;3.92;;;;;;;15.10;100.00;100687.63;5259179;28;20028;-74
2024/03/15 03:40:14;;;;;;;9.10;3.53;;;;;;;15.05;100.00;100682.81;5250289;28;20044;-74
2024/03/15 03:42:44;;;;;;;8.98;4.10;;;;;;;15.10;100.00;100687.63;5254782;28;20028;-74
2024/03/15 03:45:16;;;;;;;7.38;3.70;;;;;;;15.10;100.00;100693.03;5252959;28;20021;-74
2024/03/15 03:47:49;;;;;;;9.30;3.22;;;;;;;15.04;100.00;100689.25;5250586;28;20031;-74
2024/03/15 03:50:19;;;;;;;7.78;3.83;;;;;;;15.08;100.00;100687.81;5256661;28;20385;-74
2024/03/15 03:52:52;;;;;;;7.28;3.50;;;;;;;15.10;100.00;100699.25;5249457;28;20020;-77
2024/03/15 03:55:24;;;;;;;8.27;3.88;;;;;;;15.05;100.00;100704.41;5258181;28;20091;-74
2024/03/15 03:57:55;;;;;;;8.18;3.13;;;;;;;15.12;100.00;100693.69;5253970;28;20039;-76
2024/03/15 04:00:26;;;;;;;8.55;3.28;;;;;;;15.14;100.00;100695.13;5251602;28;20012;-74
2024/03/15 04:02:56;;;;;;;7.82;2.97;;;;;;;15.09;100.00;100692.19;5251990;28;20085;-78
2024/03/15 04:05:27;;;;;;;5.55;3.13;;;;;;;15.16;100.00;100701.19;5248803;28;20033;-74
2024/03/15 04:07:57;;;;;;;8.02;3.78;;;;;;;15.16;100.00;100700.31;5253876;28;20035;-74
2024/03/15 04:10:28;;;;;;;6.57;3.08;;;;;;;15.20;100.00;100701.59;5257067;28;20656;-74
2024/03/15 04:12:58;;;;;;;8.18;2.83;;;;;;;15.23;100.00;100707.44;5248881;28;20025;-74
2024/03/15 04:15:29;;;;;;;8.38;3.38;;;;;;;15.13;100.00;100709.69;5256564;28;20024;-77
2024/03/15 04:18:02;;;;;;;11.13;3.50;;;;;;;15.20;100.00;100707.84;5251807;28;20036;-78
2024/03/15 04:20:33;;;;;;;5.47;2.90;;;;;;;15.16;100.00;100717.41;5252460;28;20027;-74
2024/03/15 04:23:03;;;;;;;5.55;3.33;;;;;;;15.14;100.00;100708.63;5256643;28;20024;-74
2024/03/15 04:25:34;;;;;;;5.75;2.80;;;;;;;15.15;100.00;100707.59;5253097;28;20033;-76
2024/03/15 04:28:04;;;;;;;10.05;3.03;;;;;;;15.02;100.00;100705.66;5256498;28;20016;-74
2024/03/15 04:30:35;;;;;;;6.45;3.08;;;;;;;15.16;100.00;100698.47;5254268;28;20031;-77
2024/03/15 04:33:06;;;;;;;9.05;3.17;;;;;;;15.18;100.00;100699.09;5256628;28;20069;-74
2024/03/15 04:35:36;;;;;;;6.28;3.10;;;;;;;15.13;100.00;100706.16;5253802;28;20069;-78
2024/03/15 04:38:08;;;;;;;12.63;3.40;;;;;;;15.14;100.00;100714.03;5253491;28;20040;-74
2024/03/15 04:40:39;;;;;;;7.00;2.85;;;;;;;15.21;100.00;100720.34;5251289;28;20103;-74
2024/03/15 04:43:10;;;;;;;6.22;2.83;;;;;;;15.09;100.00;100712.97;5251863;28;20031;-75
2024/03/15 04:45:41;;;;;;;4.25;2.63;;;;;;;15.18;100.00;100715.31;5254446;28;20065;-76
2024/03/15 04:48:12;;;;;;;7.70;3.10;;;;;;;15.19;100.00;100705.34;5252607;28;20060;-74
2024/03/15 04:50:42;;;;;;;8.82;3.10;;;;;;;15.12;100.00;100709.88;5253721;28;20024;-74
2024/03/15 04:53:13;;;;;;;12.57;3.25;;;;;;;15.18;100.00;100706.38;5256847;28;20024;-74
2024/03/15 04:55:43;;;;;;;6.65;3.05;;;;;;;15.13;100.00;100706.97;5254036;28;20110;-78
2024/03/15 04:58:14;;;;;;;6.40;3.10;;;;;;;15.17;100.00;100713.66;5255124;28;20040;-76
2024/03/15 05:00:45;;;;;;;5.88;3.00;;;;;;;15.14;100.00;100711.34;5248790;28;20473;-74
2024/03/15 05:03:16;;;;;;;11.15;3.15;;;;;;;15.17;100.00;100712.81;5253944;28;20045;-75
2024/03/15 05:05:46;;;;;;;7.78;3.00;;;;;;;15.19;100.00;100714.28;5252629;28;20038;-75
2024/03/15 05:08:17;;;;;;;6.28;2.92;;;;;;;15.17;100.00;100710.94;5253362;28;20044;-78
2024/03/15 05:10:47;;;;;;;9.70;3.17;;;;;;;15.15;100.00;100720.28;5250818;28;20043;-77
2024/03/15 05:13:18;;;;;;;10.23;2.78;;;;;;;15.11;100.00;100709.06;5250771;28;20023;-75
2024/03/15 05:15:49;;;;;;;6.35;2.65;;;;;;;15.13;100.00;100709.69;5251248;28;20067;-74
2024/03/15 05:18:20;;;;;;;6.15;2.90;;;;;;;15.13;100.00;100723.19;5256412;28;20016;-74
2024/03/15 05:20:50;;;;;;;7.18;2.95;;;;;;;15.15;100.00;100717.56;5249482;28;20481;-74
2024/03/15 05:23:21;;;;;;;6.07;2.78;;;;;;;15.16;100.00;100708.44;5257730;28;20039;-78
2024/03/15 05:25:51;;;;;;;7.15;2.70;;;;;;;15.19;100.00;100708.03;5251188;28;20021;-76
2024/03/15 05:28:22;;;;;;;8.75;2.72;;;;;;;15.11;100.00;100719.00;5257938;28;20024;-74
2024/03/15 05:30:52;;;;;;;7.78;2.90;;;;;;;15.14;100.00;100714.03;5247773;28;20020;-74
2024/03/15 05:33:23;;;;;;;7.75;3.20;;;;;;;15.02;100.00;100716.47;5246072;28;20036;-74
2024/03/15 05:35:53;;;;;;;9.63;3.55;;;;;;;15.15;100.00;100712.16;5254476;28;20747;-74
2024/03/15 05:38:24;;;;;;;10.45;2.78;;;;;;;15.16;100.00;100709.28;5253422;28;20030;-76
2024/03/15 05:40:55;;;;;;;8.60;3.47;;;;;;;15.08;100.00;100717.53;5251292;28;20020;-74
2024/03/15 05:43:26;;;;;;;6.18;2.55;;;;;;;15.14;100.00;100724.84;5254562;28;20366;-74
2024/03/15 05:45:56;;;;;;;7.97;3.40;;;;;;;15.00;100.00;100718.53;5253948;28;20024;-74
2024/03/15 05:48:27;;;;;;;9.85;3.03;;;;;;;15.05;100.00;100719.81;5253060;28;20097;-76
2024/03/15 05:50:57;;;;;;;6.32;2.95;;;;;;;15.01;100.00;100724.78;5250069;28;20027;-74
2024/03/15 05:53:29;;;;;;;8.95;3.42;;;;;;;15.01;100.00;100717.50;5253408;28;20020;-74
2024/03/15 05:56:00;;;;;;;4.78;2.75;;;;;;;15.07;100.00;100721.28;5247979;28;20017;-74
2024/03/15 05:58:30;;;;;;;8.48;3.22;;;;;;;15.00;100.00;100729.31;5256819;28;20511;-77
2024/03/15 06:01:01;;;;;;;9.50;3.22;;;;;;;14.99;100.00;100734.94;5247764;28;20024;-77
2024/03/15 06:03:31;;;;;;;8.35;2.53;;;;;;;14.96;100.00;100735.31;5252774;28;20020;-74
2024/03/15 06:06:07;;;;;;;6.05;2.78;;;;;;;14.93;100.00;100733.03;5247396;28;20379;-76
2024/03/15 06:08:37;;;;;;;9.63;3.00;;;;;;;14.98;100.00;100731.41;5243978;28;20526;-74
2024/03/15 06:11:08;;;;;;;7.95;2.67;;;;;;;15.06;100.00;100730.44;5246270;28;20113;-74
2024/03/15 06:13:39;;;;;;;8.13;2.45;;;;;;;15.05;100.00;100728.75;5251187;28;20095;-77
2024/03/15 06:16:15;;;;;;;9.52;3.10;;;;;;;15.08;100.00;100725.66;5252517;28;20427;-74
2024/03/15 06:18:46;;;;;;;8.23;3.35;;;;;;;15.00;100.00;100734.72;5253265;28;20032;-74
2024/03/15 06:21:17;;;;;;;8.75;2.65;;;;;;;14.95;100.00;100739.06;5251464;28;20482;-74
2024/03/15 06:23:47;;;;;;;6.32;2.42;;;;;;;14.97;100.00;100732.44;5252796;28;20154;-77
2024/03/15 06:26:19;;;;;;;10.55;3.38;;;;;;;15.03;100.00;100736.22;5251380;28;20016;-74
2024/03/15 06:28:53;;;;;;;7.88;2.97;;;;;;;15.03;100.00;100734.34;5250909;28;20033;-76
2024/03/15 06:31:24;;;;;;;7.97;2.63;;;;;;;15.07;100.00;100742.91;5254611;28;20032;-75
2024/03/15 06:33:56;;;;;;;7.90;3.00;;;;;;;15.02;100.00;100748.91;5248829;28;20024;-78
2024/03/15 06:36:29;;;;;;;11.40;2.75;;;;;;;14.98;100.00;100750.31;5252253;28;20095;-75
2024/03/15 06:39:10;;;;;;;6.78;2.85;;;;;;;15.03;100.00;100760.53;5244919;28;20025;-75
2024/03/15 06:41:40;;;;;;;6.82;2.60;;;;;;;14.97;100.00;100756.75;5250700;28;20026;-75
2024/03/15 06:49:44;;;;;;;10.40;2.65;;;;;;;14.97;100.00;100758.63;5250201;28;20070;-75
2024/03/15 06:55:07;;;;;;;5.68;2.67;;;;;;;14.99;100.00;100767.34;5251492;28;20498;-77
2024/03/15 06:57:39;;;;;;;9.45;4.20;;;;;;;15.03;100.00;100765.94;5257789;28;20016;-74
2024/03/15 07:00:10;;;;;;;7.03;2.58;;;;;;;15.14;100.00;100772.66;5256011;28;20108;-75
2024/03/15 07:02:42;;;;;;;9.80;3.22;;;;;;;15.27;100.00;100770.88;5251696;28;20024;-75
2024/03/15 07:05:14;;;;;;;5.47;3.08;;;;;;;15.27;100.00;100765.47;5261087;28;20066;-75
2024/03/15 07:07:45;;;;;;;5.70;2.35;;;;;;;15.27;100.00;100770.88;5245943;28;20048;-75
2024/03/15 07:10:16;;;;;;;6.80;2.22;;;;;;;15.37;100.00;100781.34;5248092;28;20019;-74
2024/03/15 07:12:49;;;;;;;10.25;2.53;;;;;;;15.35;100.00;100774.44;5246412;28;20048;-74
2024/03/15 07:15:20;;;;;;;7.72;2.63;;;;;;;15.48;100.00;100769.94;5255589;28;20478;-75
2024/03/15 07:17:51;;;;;;;7.45;2.85;;;;;;;15.47;100.00;100772.88;5257390;28;20032;-75
2024/03/15 07:20:21;;;;;;;8.60;2.72;;;;;;;15.57;100.00;100767.91;5246427;28;20218;-75
2024/03/15 07:22:52;;;;;;;9.43;2.40;;;;;;;15.72;100.00;100773.22;5242846;28;20459;-75
2024/03/15 07:25:24;;;;;;;8.02;2.70;;;;;;;15.64;100.00;100774.22;5246852;28;20091;-74
2024/03/15 07:27:57;;;;;;;11.10;2.72;;;;;;;15.69;100.00;100773.63;5255088;28;20027;-74
2024/03/15 07:30:28;;;;;;;5.50;2.53;;;;;;;15.49;100.00;100774.31;5244901;28;20016;-75
2024/03/15 07:32:58;;;;;;;5.53;2.38;;;;;;;15.40;100.00;100778.22;5251092;28;20016;-74
2024/03/15 07:35:31;;;;;;;9.13;3.33;;;;;;;15.56;100.00;100782.44;5243188;28;20573;-75
2024/03/15 07:38:04;;;;;;;6.28;2.97;;;;;;;15.61;100.00;100784.56;5251658;28;20032;-74
2024/03/15 07:40:35;;;;;;;6.43;2.50;;;;;;;15.61;100.00;100782.69;5248622;28;20029;-74
2024/03/15 07:43:06;;;;;;;6.68;2.30;;;;;;;15.57;100.00;100778.72;5238016;28;20037;-74
2024/03/15 07:45:38;;;;;;;7.25;2.72;;;;;;;15.54;100.00;100781.81;5246126;28;20081;-74
2024/03/15 07:48:09;;;;;;;6.00;2.38;;;;;;;15.52;100.00;100797.44;5266491;28;20037;-75
2024/03/15 07:50:41;;;;;;;5.43;3.03;;;;;;;15.62;100.00;100784.38;5244356;28;20063;-74
2024/03/15 07:53:14;;;;;;;6.30;2.65;;;;;;;15.76;100.00;100778.03;5250726;28;20393;-74
2024/03/15 07:55:44;;;;;;;6.63;2.38;;;;;;;15.67;100.00;100778.41;5255146;28;20027;-74
2024/03/15 07:58:15;;;;;;;8.02;3.00;;;;;;;15.67;100.00;100792.75;5251095;28;20036;-74
2024/03/15 08:00:47;;;;;;;12.55;4.20;;;;;;;15.72;100.00;100801.09;5239490;28;20016;-74
2024/03/15 08:03:18;;;;;;;13.23;4.25;;;;;;;15.73;100.00;100807.34;5252642;28;20044;-74
2024/03/15 08:05:49;;;;;;;5.95;2.42;;;;;;;15.67;100.00;100817.09;5247057;28;20057;-74
2024/03/15 08:08:20;;;;;;;5.53;3.28;;;;;;;15.59;100.00;100814.50;5247159;28;20027;-74
2024/03/15 08:10:51;;;;;;;15.35;5.03;;;;;;;15.65;100.00;100812.91;5241841;28;20055;-74
2024/03/15 08:13:25;;;;;;;16.80;5.40;;;;;;;15.63;100.00;100815.81;5251077;28;20359;-74
2024/03/15 08:15:59;;;;;;;12.05;5.25;;;;;;;15.67;100.00;100806.28;5243451;28;20070;-74
2024/03/15 08:18:29;;;;;;;5.78;2.67;;;;;;;15.48;100.00;100805.09;5240928;28;20020;-74
2024/03/15 08:21:00;;;;;;;4.45;2.28;;;;;;;15.52;100.00;100819.06;5246367;28;20027;-74
2024/03/15 08:23:30;;;;;;;50.17;18.13;;;;;;;15.60;100.00;100813.47;5246063;28;20016;-74
2024/03/15 08:26:01;;;;;;;10.07;2.70;;;;;;;15.61;100.00;100817.84;5247359;28;20386;-74
2024/03/15 08:28:31;;;;;;;7.00;2.20;;;;;;;15.55;100.00;100826.75;5242937;28;20031;-74
2024/03/15 08:31:03;;;;;;;4.15;1.95;;;;;;;15.58;100.00;100829.06;5241812;28;20039;-74
2024/03/15 08:33:34;;;;;;;5.43;1.90;;;;;;;15.65;100.00;100827.25;5249901;28;20030;-74
2024/03/15 08:36:06;;;;;;;6.35;1.95;;;;;;;15.65;100.00;100826.44;5248432;28;20028;-74
2024/03/15 08:38:37;;;;;;;8.02;1.75;;;;;;;15.66;100.00;100836.19;5248565;28;20020;-74
2024/03/15 08:41:07;;;;;;;6.68;1.90;;;;;;;15.73;100.00;100831.69;5238711;28;20029;-74
2024/03/15 08:43:38;;;;;;;9.10;2.38;;;;;;;15.80;100.00;100827.94;5245226;28;20036;-74
2024/03/15 08:46:10;;;;;;;5.10;1.73;;;;;;;15.96;100.00;100823.22;5243642;28;20028;-74
2024/03/15 08:48:42;;;;;;;5.47;1.70;;;;;;;15.91;100.00;100820.31;5241094;28;20020;-74
2024/03/15 08:51:13;;;;;;;12.38;4.65;;;;;;;16.11;100.00;100825.78;5246593;28;20051;-74
2024/03/15 08:53:45;;;;;;;11.65;2.30;;;;;;;16.24;100.00;100828.56;5249269;28;20363;-75
2024/03/15 08:56:18;;;;;;;11.27;2.08;;;;;;;16.64;100.00;100821.34;5244068;28;20048;-74
2024/03/15 08:58:49;;;;;;;5.43;1.70;;;;;;;16.94;100.00;100821.81;5244393;28;20035;-74
2024/03/15 09:01:24;;;;;;;5.63;1.95;;;;;;;17.19;100.00;100818.47;5242316;28;20532;-74
2024/03/15 09:03:54;;;;;;;7.78;2.78;;;;;;;17.21;100.00;100825.31;5240302;28;20029;-74
2024/03/15 09:06:25;;;;;;;8.50;1.88;;;;;;;17.09;100.00;100824.31;5246698;28;20028;-74
2024/03/15 09:08:56;;;;;;;7.72;2.00;;;;;;;16.96;100.00;100825.13;5244700;28;20550;-74
2024/03/15 09:11:27;;;;;;;13.23;4.55;;;;;;;17.28;100.00;100825.34;5247995;28;20016;-74
2024/03/15 09:13:57;;;;;;;106.85;63.50;;;;;;;17.90;100.00;100823.94;5247379;28;21757;-74
2024/03/15 09:16:28;;;;;;;8.38;2.10;;;;;;;18.13;100.00;100818.00;5246546;28;20016;-74
2024/03/15 09:18:59;;;;;;;7.07;1.83;;;;;;;17.61;100.00;100817.94;5254229;28;20115;-74
2024/03/15 09:21:30;;;;;;;7.03;2.47;;;;;;;17.49;100.00;100825.06;5238522;28;20024;-74
2024/03/15 09:24:01;;;;;;;11.82;2.50;;;;;;;16.99;100.00;100818.47;5245303;28;20029;-74
2024/03/15 09:26:32;;;;;;;12.57;6.65;;;;;;;16.93;100.00;100822.84;5246467;28;20024;-74
2024/03/15 09:29:05;;;;;;;8.50;1.58;;;;;;;16.95;100.00;100818.03;5249126;28;20535;-75
2024/03/15 09:31:39;;;;;;;6.20;2.75;;;;;;;17.57;100.00;100818.56;5245480;28;20024;-74
2024/03/15 09:34:13;;;;;;;5.35;2.05;;;;;;;17.48;100.00;100828.84;5264381;28;20115;-74
2024/03/15 09:36:44;;;;;;;5.88;1.63;;;;;;;17.63;100.00;100820.47;5242731;28;20062;-74
2024/03/15 09:39:15;;;;;;;11.70;1.75;;;;;;;17.64;100.00;100824.00;5239797;28;20473;-74
2024/03/15 09:41:49;;;;;;;4.22;1.65;;;;;;;17.71;100.00;100812.06;5241907;28;20023;-75
2024/03/15 09:44:20;;;;;;;4.95;1.60;;;;;;;18.07;100.00;100817.00;5246606;28;20478;-75
2024/03/15 09:46:50;;;;;;;9.40;1.75;;;;;;;18.24;100.00;100822.72;5248216;28;20024;-74
2024/03/15 09:49:22;;;;;;;6.15;1.45;;;;;;;17.95;100.00;100820.56;5247678;28;20396;-75
2024/03/15 09:51:53;;;;;;;11.00;1.63;;;;;;;17.75;100.00;100812.50;5247060;28;20028;-75
2024/03/15 09:54:24;;;;;;;5.65;1.58;;;;;;;17.66;100.00;100816.47;5248713;28;20504;-74
2024/03/15 09:56:54;;;;;;;2.70;1.23;;;;;;;17.59;100.00;100816.50;5248749;28;20386;-75
2024/03/15 09:59:34;;;;;;;11.25;2.35;;;;;;;17.45;100.00;100814.88;5252733;28;20031;-74
2024/03/15 10:02:19;;;;;;;6.47;1.80;;;;;;;16.99;100.00;100827.44;5242170;28;20052;-74
2024/03/15 10:04:51;;;;;;;4.80;1.50;;;;;;;16.93;100.00;100824.72;5244698;28;20038;-75
2024/03/15 10:07:22;;;;;;;9.35;1.58;;;;;;;16.97;100.00;100826.81;5252865;28;20028;-74
2024/03/15 10:09:53;;;;;;;6.43;1.58;;;;;;;16.80;100.00;100825.56;5245891;28;20099;-75
2024/03/15 10:12:24;;;;;;;7.35;1.80;;;;;;;16.64;100.00;100821.34;5242602;28;20074;-74
2024/03/15 10:14:54;;;;;;;5.00;1.48;;;;;;;16.94;100.00;100820.97;5241174;28;20027;-74
2024/03/15 10:17:25;;;;;;;6.15;1.20;;;;;;;17.21;100.00;100825.31;5246117;28;20020;-75
2024/03/15 10:19:55;;;;;;;5.65;1.33;;;;;;;17.53;100.00;100820.91;5249748;28;20017;-74
2024/03/15 10:22:26;;;;;;;8.23;1.63;;;;;;;17.44;100.00;100816.75;5253365;28;20028;-75
2024/03/15 10:24:56;;;;;;;5.60;1.38;;;;;;;17.47;100.00;100815.47;5255782;28;20077;-74
2024/03/15 10:27:27;;;;;;;4.40;1.35;;;;;;;17.48;100.00;100831.56;5254786;28;20025;-74
2024/03/15 10:29:58;;;;;;;6.82;1.20;;;;;;;17.26;100.00;100825.53;5251307;28;20017;-74
2024/03/15 10:32:28;;;;;;;8.35;1.52;;;;;;;17.29;100.00;100830.53;5257384;28;20099;-75
2024/03/15 10:34:59;;;;;;;6.00;1.50;;;;;;;17.39;100.00;100821.13;5252726;28;20069;-75
2024/03/15 10:37:30;;;;;;;6.28;1.48;;;;;;;17.70;100.00;100823.16;5252371;28;20032;-75
2024/03/15 10:40:01;;;;;;;9.25;1.25;;;;;;;17.89;100.00;100821.44;5246816;28;20027;-75
2024/03/15 10:42:31;;;;;;;7.00;1.65;;;;;;;17.96;100.00;100825.78;5252553;28;20081;-75
2024/03/15 10:45:02;;;;;;;6.47;1.00;;;;;;;18.12;100.00;100821.72;5254074;28;20028;-76
2024/03/15 10:47:34;;;;;;;4.63;1.65;;;;;;;18.25;100.00;100824.41;5235111;28;20025;-75
2024/03/15 10:50:11;;;;;;;3.90;1.40;;;;;;;17.99;100.00;100819.94;5260639;28;20115;-75
2024/03/15 10:52:44;;;;;;;5.18;1.45;;;;;;;17.99;100.00;100808.25;5247486;28;20020;-75
2024/03/15 10:55:18;;;;;;;14.10;1.58;;;;;;;18.24;100.00;100822.72;5259072;28;20050;-75
2024/03/15 10:57:50;;;;;;;5.22;1.08;;;;;;;18.32;100.00;100816.19;5252837;28;20024;-75
2024/03/15 11:00:29;;;;;;;5.45;0.88;;;;;;;18.00;100.00;100828.91;5253745;28;20054;-75
2024/03/15 11:03:15;;;;;;;4.47;1.60;;;;;;;17.77;100.00;100821.25;5258719;28;20023;-75
2024/03/15 11:05:47;;;;;;;4.65;1.25;;;;;;;18.02;100.00;100816.81;5253096;28;20026;-75
2024/03/15 11:08:21;;;;;;;8.52;1.10;;;;;;;17.92;100.00;100823.72;5241725;28;20111;-75
2024/03/15 11:10:54;;;;;;;4.13;1.00;;;;;;;17.91;100.00;100819.34;5249961;28;20017;-75
2024/03/15 11:13:25;;;;;;;7.03;1.88;;;;;;;17.95;100.00;100817.88;5250778;28;20275;-75
2024/03/15 11:15:56;;;;;;;8.70;1.77;;;;;;;17.85;100.00;100815.59;5253038;28;20436;-75
2024/03/15 11:18:35;;;;;;;5.13;1.40;;;;;;;17.57;100.00;100827.56;5251256;28;20019;-75
2024/03/15 11:21:18;;;;;;;6.68;1.20;;;;;;;17.87;100.00;100821.63;5253524;28;20028;-75
2024/03/15 11:23:50;;;;;;;7.30;1.85;;;;;;;17.89;100.00;100826.88;5246903;28;20464;-75
2024/03/15 11:26:22;;;;;;;6.07;1.40;;;;;;;17.70;100.00;100820.44;5253062;28;20058;-75
2024/03/15 11:28:54;;;;;;;4.57;1.35;;;;;;;17.89;100.00;100819.56;5248145;28;20436;-75
2024/03/15 11:31:28;;;;;;;5.93;1.13;;;;;;;17.73;100.00;100814.63;5253045;28;20032;-75
2024/03/15 11:34:00;;;;;;;7.20;1.02;;;;;;;17.90;100.00;100817.69;5250958;28;20103;-75
2024/03/15 11:36:31;;;;;;;5.07;1.25;;;;;;;17.81;100.00;100812.47;5255555;28;20024;-75
2024/03/15 11:39:01;;;;;;;6.00;1.48;;;;;;;17.75;100.00;100810.63;5237865;28;20017;-75
2024/03/15 11:41:32;;;;;;;5.50;1.60;;;;;;;17.51;100.00;100811.28;5245629;28;20023;-75